sensor_id;sensor_type;location;lat;lon;timestamp;temperature;humidity
65972;SHT31;52726;48.852;9.152;2023-04-24T00:01:14;10.80;79.55
65972;SHT31;52726;48.852;9.152;2023-04-24T00:03:40;10.85;79.30
65972;SHT31;52726;48.852;9.152;2023-04-24T00:06:06;10.90;78.93
65972;SHT31;52726;48.852;9.152;2023-04-24T00:08:33;10.95;79.06
65972;SHT31;52726;48.852;9.152;2023-04-24T00:10:58;10.95;78.98
65972;SHT31;52726;48.852;9.152;2023-04-24T00:13:24;10.95;78.65
65972;SHT31;52726;48.852;9.152;2023-04-24T00:15:49;11.01;78.62
65972;SHT31;52726;48.852;9.152;2023-04-24T00:18:15;11.04;78.05
65972;SHT31;52726;48.852;9.152;2023-04-24T00:20:40;11.05;78.06
65972;SHT31;52726;48.852;9.152;2023-04-24T00:23:06;11.05;77.93
65972;SHT31;52726;48.852;9.152;2023-04-24T00:25:31;11.07;78.13
65972;SHT31;52726;48.852;9.152;2023-04-24T00:27:56;11.11;77.77
65972;SHT31;52726;48.852;9.152;2023-04-24T00:30:22;11.14;77.87
65972;SHT31;52726;48.852;9.152;2023-04-24T00:32:47;11.09;77.97
65972;SHT31;52726;48.852;9.152;2023-04-24T00:35:12;11.11;78.12
65972;SHT31;52726;48.852;9.152;2023-04-24T00:37:38;11.14;77.82
65972;SHT31;52726;48.852;9.152;2023-04-24T00:40:04;11.14;77.61
65972;SHT31;52726;48.852;9.152;2023-04-24T00:42:29;11.12;77.50
65972;SHT31;52726;48.852;9.152;2023-04-24T00:44:56;11.14;77.76
65972;SHT31;52726;48.852;9.152;2023-04-24T00:47:21;11.14;77.63
65972;SHT31;52726;48.852;9.152;2023-04-24T00:49:47;11.14;77.45
65972;SHT31;52726;48.852;9.152;2023-04-24T00:52:12;11.18;76.97
65972;SHT31;52726;48.852;9.152;2023-04-24T00:54:43;11.18;77.07
65972;SHT31;52726;48.852;9.152;2023-04-24T00:57:10;11.19;76.78
65972;SHT31;52726;48.852;9.152;2023-04-24T00:59:36;11.20;77.00
65972;SHT31;52726;48.852;9.152;2023-04-24T01:02:01;11.20;76.67
65972;SHT31;52726;48.852;9.152;2023-04-24T01:04:27;11.19;77.19
65972;SHT31;52726;48.852;9.152;2023-04-24T01:06:52;11.19;76.90
65972;SHT31;52726;48.852;9.152;2023-04-24T01:09:21;11.18;76.61
65972;SHT31;52726;48.852;9.152;2023-04-24T01:11:48;11.20;76.84
65972;SHT31;52726;48.852;9.152;2023-04-24T01:14:13;11.22;76.72
65972;SHT31;52726;48.852;9.152;2023-04-24T01:16:39;11.23;76.70
65972;SHT31;52726;48.852;9.152;2023-04-24T01:19:06;11.22;76.63
65972;SHT31;52726;48.852;9.152;2023-04-24T01:21:34;11.19;76.99
65972;SHT31;52726;48.852;9.152;2023-04-24T01:24:01;11.18;76.84
65972;SHT31;52726;48.852;9.152;2023-04-24T01:26:27;11.16;76.86
65972;SHT31;52726;48.852;9.152;2023-04-24T01:28:52;11.14;77.28
65972;SHT31;52726;48.852;9.152;2023-04-24T01:31:18;11.09;77.01
65972;SHT31;52726;48.852;9.152;2023-04-24T01:33:44;11.11;77.00
65972;SHT31;52726;48.852;9.152;2023-04-24T01:36:11;11.07;77.33
65972;SHT31;52726;48.852;9.152;2023-04-24T01:38:37;11.04;77.27
65972;SHT31;52726;48.852;9.152;2023-04-24T01:41:02;11.02;77.84
65972;SHT31;52726;48.852;9.152;2023-04-24T01:43:28;10.95;77.54
65972;SHT31;52726;48.852;9.152;2023-04-24T01:45:53;10.98;77.91
65972;SHT31;52726;48.852;9.152;2023-04-24T01:48:19;10.98;77.84
65972;SHT31;52726;48.852;9.152;2023-04-24T01:50:44;10.97;77.40
65972;SHT31;52726;48.852;9.152;2023-04-24T01:53:10;10.95;77.85
65972;SHT31;52726;48.852;9.152;2023-04-24T01:55:36;10.91;77.99
65972;SHT31;52726;48.852;9.152;2023-04-24T01:58:01;10.87;78.33
65972;SHT31;52726;48.852;9.152;2023-04-24T02:00:27;10.85;77.79
65972;SHT31;52726;48.852;9.152;2023-04-24T02:02:52;10.87;77.99
65972;SHT31;52726;48.852;9.152;2023-04-24T02:05:18;10.84;78.27
65972;SHT31;52726;48.852;9.152;2023-04-24T02:07:43;10.80;78.24
65972;SHT31;52726;48.852;9.152;2023-04-24T02:10:09;10.78;78.23
65972;SHT31;52726;48.852;9.152;2023-04-24T02:12:34;10.74;79.03
65972;SHT31;52726;48.852;9.152;2023-04-24T02:15:00;10.74;78.98
65972;SHT31;52726;48.852;9.152;2023-04-24T02:17:25;10.71;79.13
65972;SHT31;52726;48.852;9.152;2023-04-24T02:19:51;10.71;79.29
65972;SHT31;52726;48.852;9.152;2023-04-24T02:22:16;10.68;79.03
65972;SHT31;52726;48.852;9.152;2023-04-24T02:24:41;10.72;79.28
65972;SHT31;52726;48.852;9.152;2023-04-24T02:27:07;10.72;79.50
65972;SHT31;52726;48.852;9.152;2023-04-24T02:29:32;10.78;79.53
65972;SHT31;52726;48.852;9.152;2023-04-24T02:31:58;10.82;79.24
65972;SHT31;52726;48.852;9.152;2023-04-24T02:34:23;10.85;79.34
65972;SHT31;52726;48.852;9.152;2023-04-24T02:36:49;10.90;79.25
65972;SHT31;52726;48.852;9.152;2023-04-24T02:39:14;10.87;79.63
65972;SHT31;52726;48.852;9.152;2023-04-24T02:41:42;10.85;79.91
65972;SHT31;52726;48.852;9.152;2023-04-24T02:44:07;10.85;80.05
65972;SHT31;52726;48.852;9.152;2023-04-24T02:46:32;10.84;81.07
65972;SHT31;52726;48.852;9.152;2023-04-24T02:48:58;10.81;81.56
65972;SHT31;52726;48.852;9.152;2023-04-24T02:51:23;10.78;81.70
65972;SHT31;52726;48.852;9.152;2023-04-24T02:53:48;10.75;81.59
65972;SHT31;52726;48.852;9.152;2023-04-24T02:56:14;10.75;82.15
65972;SHT31;52726;48.852;9.152;2023-04-24T02:58:39;10.75;81.98
65972;SHT31;52726;48.852;9.152;2023-04-24T03:01:05;10.71;82.31
65972;SHT31;52726;48.852;9.152;2023-04-24T03:03:30;10.64;82.76
65972;SHT31;52726;48.852;9.152;2023-04-24T03:05:55;10.64;82.87
65972;SHT31;52726;48.852;9.152;2023-04-24T03:08:22;10.61;83.13
65972;SHT31;52726;48.852;9.152;2023-04-24T03:10:47;10.57;82.61
65972;SHT31;52726;48.852;9.152;2023-04-24T03:13:13;10.60;83.00
65972;SHT31;52726;48.852;9.152;2023-04-24T03:15:38;10.57;82.92
65972;SHT31;52726;48.852;9.152;2023-04-24T03:18:03;10.57;83.09
65972;SHT31;52726;48.852;9.152;2023-04-24T03:20:29;10.51;82.74
65972;SHT31;52726;48.852;9.152;2023-04-24T03:22:54;10.46;83.39
65972;SHT31;52726;48.852;9.152;2023-04-24T03:25:19;10.44;82.63
65972;SHT31;52726;48.852;9.152;2023-04-24T03:27:45;10.39;83.16
65972;SHT31;52726;48.852;9.152;2023-04-24T03:30:11;10.40;83.35
65972;SHT31;52726;48.852;9.152;2023-04-24T03:32:36;10.36;83.86
65972;SHT31;52726;48.852;9.152;2023-04-24T03:35:02;10.29;83.82
65972;SHT31;52726;48.852;9.152;2023-04-24T03:37:28;10.30;83.67
65972;SHT31;52726;48.852;9.152;2023-04-24T03:39:53;10.25;83.36
65972;SHT31;52726;48.852;9.152;2023-04-24T03:42:20;10.19;83.80
65972;SHT31;52726;48.852;9.152;2023-04-24T03:44:45;10.16;83.97
65972;SHT31;52726;48.852;9.152;2023-04-24T03:47:10;10.12;83.76
65972;SHT31;52726;48.852;9.152;2023-04-24T03:49:36;10.13;83.29
65972;SHT31;52726;48.852;9.152;2023-04-24T03:52:01;10.10;84.21
65972;SHT31;52726;48.852;9.152;2023-04-24T03:54:26;10.08;83.95
65972;SHT31;52726;48.852;9.152;2023-04-24T03:56:51;10.05;84.39
65972;SHT31;52726;48.852;9.152;2023-04-24T03:59:17;10.01;84.10
65972;SHT31;52726;48.852;9.152;2023-04-24T04:01:42;9.99;84.01
65972;SHT31;52726;48.852;9.152;2023-04-24T04:04:07;9.98;84.59
65972;SHT31;52726;48.852;9.152;2023-04-24T04:06:33;10.01;84.55
65972;SHT31;52726;48.852;9.152;2023-04-24T04:08:59;10.03;84.11
65972;SHT31;52726;48.852;9.152;2023-04-24T04:11:25;10.09;84.27
65972;SHT31;52726;48.852;9.152;2023-04-24T04:13:50;10.13;84.59
65972;SHT31;52726;48.852;9.152;2023-04-24T04:16:15;10.13;84.90
65972;SHT31;52726;48.852;9.152;2023-04-24T04:18:43;10.15;84.76
65972;SHT31;52726;48.852;9.152;2023-04-24T04:21:08;10.13;86.19
65972;SHT31;52726;48.852;9.152;2023-04-24T04:23:33;10.05;86.93
65972;SHT31;52726;48.852;9.152;2023-04-24T04:25:59;9.84;86.09
65972;SHT31;52726;48.852;9.152;2023-04-24T04:28:24;9.70;86.99
65972;SHT31;52726;48.852;9.152;2023-04-24T04:30:50;9.61;87.29
65972;SHT31;52726;48.852;9.152;2023-04-24T04:33:19;9.58;87.13
65972;SHT31;52726;48.852;9.152;2023-04-24T04:35:45;9.52;86.44
65972;SHT31;52726;48.852;9.152;2023-04-24T04:38:14;9.50;86.64
65972;SHT31;52726;48.852;9.152;2023-04-24T04:40:40;9.47;85.15
65972;SHT31;52726;48.852;9.152;2023-04-24T04:43:05;9.48;85.31
65972;SHT31;52726;48.852;9.152;2023-04-24T04:45:31;9.46;85.40
65972;SHT31;52726;48.852;9.152;2023-04-24T04:47:58;9.44;85.10
65972;SHT31;52726;48.852;9.152;2023-04-24T04:50:26;9.38;85.49
65972;SHT31;52726;48.852;9.152;2023-04-24T04:52:52;9.38;85.06
65972;SHT31;52726;48.852;9.152;2023-04-24T04:55:17;9.31;85.17
65972;SHT31;52726;48.852;9.152;2023-04-24T04:57:43;9.34;85.26
65972;SHT31;52726;48.852;9.152;2023-04-24T05:00:09;9.33;85.29
65972;SHT31;52726;48.852;9.152;2023-04-24T05:02:35;9.31;85.50
65972;SHT31;52726;48.852;9.152;2023-04-24T05:05:00;9.33;85.40
65972;SHT31;52726;48.852;9.152;2023-04-24T05:07:26;9.30;85.52
65972;SHT31;52726;48.852;9.152;2023-04-24T05:09:51;9.26;84.96
65972;SHT31;52726;48.852;9.152;2023-04-24T05:12:17;9.26;85.79
65972;SHT31;52726;48.852;9.152;2023-04-24T05:14:42;9.24;85.54
65972;SHT31;52726;48.852;9.152;2023-04-24T05:17:08;9.23;85.64
65972;SHT31;52726;48.852;9.152;2023-04-24T05:19:33;9.19;85.25
65972;SHT31;52726;48.852;9.152;2023-04-24T05:22:01;9.22;85.00
65972;SHT31;52726;48.852;9.152;2023-04-24T05:24:28;9.20;85.11
65972;SHT31;52726;48.852;9.152;2023-04-24T05:26:53;9.22;84.91
65972;SHT31;52726;48.852;9.152;2023-04-24T05:29:19;9.22;85.06
65972;SHT31;52726;48.852;9.152;2023-04-24T05:31:44;9.26;85.28
65972;SHT31;52726;48.852;9.152;2023-04-24T05:34:10;9.27;85.11
65972;SHT31;52726;48.852;9.152;2023-04-24T05:36:35;9.30;85.15
65972;SHT31;52726;48.852;9.152;2023-04-24T05:39:00;9.26;84.93
65972;SHT31;52726;48.852;9.152;2023-04-24T05:41:26;9.23;84.88
65972;SHT31;52726;48.852;9.152;2023-04-24T05:43:51;9.20;84.73
65972;SHT31;52726;48.852;9.152;2023-04-24T05:46:16;9.16;84.96
65972;SHT31;52726;48.852;9.152;2023-04-24T05:48:41;9.15;85.15
65972;SHT31;52726;48.852;9.152;2023-04-24T05:51:09;9.18;84.95
65972;SHT31;52726;48.852;9.152;2023-04-24T05:53:34;9.27;84.79
65972;SHT31;52726;48.852;9.152;2023-04-24T05:55:59;9.37;84.59
65972;SHT31;52726;48.852;9.152;2023-04-24T05:58:25;9.47;84.29
65972;SHT31;52726;48.852;9.152;2023-04-24T06:00:50;9.52;84.54
65972;SHT31;52726;48.852;9.152;2023-04-24T06:03:16;9.54;84.34
65972;SHT31;52726;48.852;9.152;2023-04-24T06:05:41;9.50;84.23
65972;SHT31;52726;48.852;9.152;2023-04-24T06:08:06;9.48;84.60
65972;SHT31;52726;48.852;9.152;2023-04-24T06:10:32;9.47;84.92
65972;SHT31;52726;48.852;9.152;2023-04-24T06:12:57;9.51;84.62
65972;SHT31;52726;48.852;9.152;2023-04-24T06:15:27;9.58;84.64
65972;SHT31;52726;48.852;9.152;2023-04-24T06:17:53;9.62;84.20
65972;SHT31;52726;48.852;9.152;2023-04-24T06:20:19;9.77;82.56
65972;SHT31;52726;48.852;9.152;2023-04-24T06:22:44;10.16;82.13
65972;SHT31;52726;48.852;9.152;2023-04-24T06:25:10;10.60;81.33
65972;SHT31;52726;48.852;9.152;2023-04-24T06:27:35;10.53;78.29
65972;SHT31;52726;48.852;9.152;2023-04-24T06:30:01;10.51;78.73
65972;SHT31;52726;48.852;9.152;2023-04-24T06:32:26;10.63;78.56
65972;SHT31;52726;48.852;9.152;2023-04-24T06:34:52;10.57;77.96
65972;SHT31;52726;48.852;9.152;2023-04-24T06:37:19;10.67;78.16
65972;SHT31;52726;48.852;9.152;2023-04-24T06:39:45;10.80;77.27
65972;SHT31;52726;48.852;9.152;2023-04-24T06:42:11;10.87;77.17
65972;SHT31;52726;48.852;9.152;2023-04-24T06:44:36;10.81;76.43
65972;SHT31;52726;48.852;9.152;2023-04-24T06:47:06;11.11;76.47
65972;SHT31;52726;48.852;9.152;2023-04-24T06:49:33;11.39;75.23
65972;SHT31;52726;48.852;9.152;2023-04-24T06:51:58;12.80;73.42
65972;SHT31;52726;48.852;9.152;2023-04-24T06:54:23;13.72;68.72
65972;SHT31;52726;48.852;9.152;2023-04-24T06:56:48;14.27;67.29
65972;SHT31;52726;48.852;9.152;2023-04-24T06:59:15;13.94;67.33
65972;SHT31;52726;48.852;9.152;2023-04-24T07:01:41;14.37;65.32
65972;SHT31;52726;48.852;9.152;2023-04-24T07:04:06;15.06;66.20
65972;SHT31;52726;48.852;9.152;2023-04-24T07:06:31;15.43;60.61
65972;SHT31;52726;48.852;9.152;2023-04-24T07:08:57;16.26;62.06
65972;SHT31;52726;48.852;9.152;2023-04-24T07:11:23;14.92;63.31
65972;SHT31;52726;48.852;9.152;2023-04-24T07:13:49;13.73;66.67
65972;SHT31;52726;48.852;9.152;2023-04-24T07:16:14;12.67;65.59
65972;SHT31;52726;48.852;9.152;2023-04-24T07:18:40;12.08;66.23
65972;SHT31;52726;48.852;9.152;2023-04-24T07:21:05;11.85;67.73
65972;SHT31;52726;48.852;9.152;2023-04-24T07:23:32;11.74;69.01
65972;SHT31;52726;48.852;9.152;2023-04-24T07:25:57;11.70;69.29
65972;SHT31;52726;48.852;9.152;2023-04-24T07:28:22;11.87;68.53
65972;SHT31;52726;48.852;9.152;2023-04-24T07:30:48;12.06;67.35
65972;SHT31;52726;48.852;9.152;2023-04-24T07:33:13;12.20;67.49
65972;SHT31;52726;48.852;9.152;2023-04-24T07:35:39;12.10;66.39
65972;SHT31;52726;48.852;9.152;2023-04-24T07:38:04;12.02;65.94
65972;SHT31;52726;48.852;9.152;2023-04-24T07:40:30;11.90;66.52
65972;SHT31;52726;48.852;9.152;2023-04-24T07:42:55;11.74;67.16
65972;SHT31;52726;48.852;9.152;2023-04-24T07:45:20;11.64;66.93
65972;SHT31;52726;48.852;9.152;2023-04-24T07:47:46;11.81;65.05
65972;SHT31;52726;48.852;9.152;2023-04-24T07:50:12;11.94;65.87
65972;SHT31;52726;48.852;9.152;2023-04-24T07:52:38;11.70;64.33
65972;SHT31;52726;48.852;9.152;2023-04-24T07:55:04;11.66;64.94
65972;SHT31;52726;48.852;9.152;2023-04-24T07:57:30;11.49;65.01
65972;SHT31;52726;48.852;9.152;2023-04-24T07:59:55;11.76;64.89
65972;SHT31;52726;48.852;9.152;2023-04-24T08:02:20;12.45;63.99
65972;SHT31;52726;48.852;9.152;2023-04-24T08:04:51;12.02;65.17
65972;SHT31;52726;48.852;9.152;2023-04-24T08:07:16;11.81;64.65
65972;SHT31;52726;48.852;9.152;2023-04-24T08:09:42;11.95;64.19
65972;SHT31;52726;48.852;9.152;2023-04-24T08:12:07;12.67;64.04
65972;SHT31;52726;48.852;9.152;2023-04-24T08:14:33;12.73;65.28
65972;SHT31;52726;48.852;9.152;2023-04-24T08:16:58;12.22;64.98
65972;SHT31;52726;48.852;9.152;2023-04-24T08:19:25;11.73;65.97
65972;SHT31;52726;48.852;9.152;2023-04-24T08:21:51;11.39;66.51
65972;SHT31;52726;48.852;9.152;2023-04-24T08:24:16;11.36;66.13
65972;SHT31;52726;48.852;9.152;2023-04-24T08:26:42;11.26;66.26
65972;SHT31;52726;48.852;9.152;2023-04-24T08:29:07;11.57;64.88
65972;SHT31;52726;48.852;9.152;2023-04-24T08:31:33;12.15;62.29
65972;SHT31;52726;48.852;9.152;2023-04-24T08:33:58;12.42;60.86
65972;SHT31;52726;48.852;9.152;2023-04-24T08:36:25;12.45;63.10
65972;SHT31;52726;48.852;9.152;2023-04-24T08:38:51;12.66;61.55
65972;SHT31;52726;48.852;9.152;2023-04-24T08:41:17;13.28;60.27
65972;SHT31;52726;48.852;9.152;2023-04-24T08:43:43;12.87;60.76
65972;SHT31;52726;48.852;9.152;2023-04-24T08:46:13;12.96;58.59
65972;SHT31;52726;48.852;9.152;2023-04-24T08:48:39;12.46;58.04
65972;SHT31;52726;48.852;9.152;2023-04-24T08:51:07;12.24;59.60
65972;SHT31;52726;48.852;9.152;2023-04-24T08:53:32;12.24;60.22
65972;SHT31;52726;48.852;9.152;2023-04-24T08:55:58;11.71;60.71
65972;SHT31;52726;48.852;9.152;2023-04-24T08:58:27;11.64;62.80
65972;SHT31;52726;48.852;9.152;2023-04-24T09:00:57;11.93;62.60
65972;SHT31;52726;48.852;9.152;2023-04-24T09:03:23;11.90;60.21
65972;SHT31;52726;48.852;9.152;2023-04-24T09:05:50;11.99;61.48
65972;SHT31;52726;48.852;9.152;2023-04-24T09:08:19;11.85;61.14
65972;SHT31;52726;48.852;9.152;2023-04-24T09:10:45;12.12;61.00
65972;SHT31;52726;48.852;9.152;2023-04-24T09:13:10;11.93;61.43
65972;SHT31;52726;48.852;9.152;2023-04-24T09:15:37;11.71;62.21
65972;SHT31;52726;48.852;9.152;2023-04-24T09:18:04;11.49;62.18
65972;SHT31;52726;48.852;9.152;2023-04-24T09:20:30;11.30;62.69
65972;SHT31;52726;48.852;9.152;2023-04-24T09:22:57;11.26;62.58
65972;SHT31;52726;48.852;9.152;2023-04-24T09:25:24;11.30;64.52
65972;SHT31;52726;48.852;9.152;2023-04-24T09:27:53;11.37;65.54
65972;SHT31;52726;48.852;9.152;2023-04-24T09:30:22;11.55;66.42
65972;SHT31;52726;48.852;9.152;2023-04-24T09:32:48;11.62;66.00
65972;SHT31;52726;48.852;9.152;2023-04-24T09:35:14;11.62;65.88
65972;SHT31;52726;48.852;9.152;2023-04-24T09:37:45;11.90;65.26
65972;SHT31;52726;48.852;9.152;2023-04-24T09:40:12;12.91;62.40
65972;SHT31;52726;48.852;9.152;2023-04-24T09:42:38;13.61;60.80
65972;SHT31;52726;48.852;9.152;2023-04-24T09:45:08;13.77;62.37
65972;SHT31;52726;48.852;9.152;2023-04-24T09:47:38;13.75;59.48
65972;SHT31;52726;48.852;9.152;2023-04-24T09:50:16;13.45;59.47
65972;SHT31;52726;48.852;9.152;2023-04-24T09:52:47;13.48;59.48
65972;SHT31;52726;48.852;9.152;2023-04-24T09:55:20;12.73;59.78
65972;SHT31;52726;48.852;9.152;2023-04-24T09:57:55;12.89;59.51
65972;SHT31;52726;48.852;9.152;2023-04-24T10:00:25;13.42;59.49
65972;SHT31;52726;48.852;9.152;2023-04-24T10:02:55;14.04;59.25
65972;SHT31;52726;48.852;9.152;2023-04-24T10:05:29;14.11;56.47
65972;SHT31;52726;48.852;9.152;2023-04-24T10:07:57;13.94;56.66
65972;SHT31;52726;48.852;9.152;2023-04-24T10:10:22;14.44;56.16
65972;SHT31;52726;48.852;9.152;2023-04-24T10:12:48;14.82;56.92
65972;SHT31;52726;48.852;9.152;2023-04-24T10:15:14;14.85;54.64
65972;SHT31;52726;48.852;9.152;2023-04-24T10:17:41;14.28;54.04
65972;SHT31;52726;48.852;9.152;2023-04-24T10:20:07;13.76;54.52
65972;SHT31;52726;48.852;9.152;2023-04-24T10:22:33;13.61;55.59
65972;SHT31;52726;48.852;9.152;2023-04-24T10:24:59;13.19;57.17
65972;SHT31;52726;48.852;9.152;2023-04-24T10:27:26;12.77;56.58
65972;SHT31;52726;48.852;9.152;2023-04-24T10:29:53;12.48;58.21
65972;SHT31;52726;48.852;9.152;2023-04-24T10:32:18;12.32;59.59
65972;SHT31;52726;48.852;9.152;2023-04-24T10:34:44;12.22;59.57
65972;SHT31;52726;48.852;9.152;2023-04-24T10:37:10;11.85;59.00
65972;SHT31;52726;48.852;9.152;2023-04-24T10:39:35;11.71;59.71
65972;SHT31;52726;48.852;9.152;2023-04-24T10:42:14;11.57;60.08
65972;SHT31;52726;48.852;9.152;2023-04-24T10:44:40;11.59;60.17
65972;SHT31;52726;48.852;9.152;2023-04-24T10:47:12;11.36;58.72
65972;SHT31;52726;48.852;9.152;2023-04-24T10:49:38;11.60;60.11
65972;SHT31;52726;48.852;9.152;2023-04-24T10:52:04;11.73;59.38
65972;SHT31;52726;48.852;9.152;2023-04-24T10:54:44;11.78;59.37
65972;SHT31;52726;48.852;9.152;2023-04-24T11:02:38;12.10;58.90
65972;SHT31;52726;48.852;9.152;2023-04-24T11:05:06;12.26;57.66
65972;SHT31;52726;48.852;9.152;2023-04-24T11:10:38;13.10;58.69
65972;SHT31;52726;48.852;9.152;2023-04-24T11:13:04;13.52;57.07
65972;SHT31;52726;48.852;9.152;2023-04-24T11:15:29;13.45;57.51
65972;SHT31;52726;48.852;9.152;2023-04-24T11:17:55;13.03;57.02
65972;SHT31;52726;48.852;9.152;2023-04-24T11:20:23;13.12;56.76
65972;SHT31;52726;48.852;9.152;2023-04-24T11:22:52;13.77;58.82
65972;SHT31;52726;48.852;9.152;2023-04-24T11:25:18;13.76;56.45
65972;SHT31;52726;48.852;9.152;2023-04-24T11:27:44;13.58;56.84
65972;SHT31;52726;48.852;9.152;2023-04-24T11:30:11;13.91;56.50
65972;SHT31;52726;48.852;9.152;2023-04-24T11:32:41;13.79;54.99
65972;SHT31;52726;48.852;9.152;2023-04-24T11:35:18;13.06;55.64
65972;SHT31;52726;48.852;9.152;2023-04-24T11:37:45;12.87;55.86
65972;SHT31;52726;48.852;9.152;2023-04-24T11:40:13;13.22;57.61
65972;SHT31;52726;48.852;9.152;2023-04-24T11:42:42;13.22;57.96
65972;SHT31;52726;48.852;9.152;2023-04-24T11:45:16;12.83;59.20
65972;SHT31;52726;48.852;9.152;2023-04-24T11:47:43;12.46;60.21
65972;SHT31;52726;48.852;9.152;2023-04-24T11:50:12;12.41;61.92
65972;SHT31;52726;48.852;9.152;2023-04-24T11:52:40;12.55;60.64
65972;SHT31;52726;48.852;9.152;2023-04-24T11:57:42;12.98;59.26
65972;SHT31;52726;48.852;9.152;2023-04-24T12:00:15;13.12;57.25
65972;SHT31;52726;48.852;9.152;2023-04-24T12:02:41;13.34;56.86
65972;SHT31;52726;48.852;9.152;2023-04-24T12:05:07;13.22;57.61
65972;SHT31;52726;48.852;9.152;2023-04-24T12:07:40;13.24;58.64
65972;SHT31;52726;48.852;9.152;2023-04-24T12:10:08;13.34;58.94
65972;SHT31;52726;48.852;9.152;2023-04-24T12:12:34;13.15;57.43
65972;SHT31;52726;48.852;9.152;2023-04-24T12:15:05;13.04;59.84
65972;SHT31;52726;48.852;9.152;2023-04-24T12:17:32;12.87;60.02
65972;SHT31;52726;48.852;9.152;2023-04-24T12:20:03;12.66;59.37
65972;SHT31;52726;48.852;9.152;2023-04-24T12:22:43;12.49;60.07
65972;SHT31;52726;48.852;9.152;2023-04-24T12:25:11;12.55;58.44
65972;SHT31;52726;48.852;9.152;2023-04-24T12:27:36;12.67;58.00
65972;SHT31;52726;48.852;9.152;2023-04-24T12:30:04;12.70;58.23
65972;SHT31;52726;48.852;9.152;2023-04-24T12:32:30;12.41;58.52
65972;SHT31;52726;48.852;9.152;2023-04-24T12:34:56;12.31;58.88
65972;SHT31;52726;48.852;9.152;2023-04-24T12:37:26;12.35;59.82
65972;SHT31;52726;48.852;9.152;2023-04-24T12:40:08;12.64;61.18
65972;SHT31;52726;48.852;9.152;2023-04-24T12:42:35;12.67;59.16
65972;SHT31;52726;48.852;9.152;2023-04-24T12:45:05;12.52;58.70
65972;SHT31;52726;48.852;9.152;2023-04-24T12:47:31;12.49;59.79
65972;SHT31;52726;48.852;9.152;2023-04-24T12:49:57;12.26;59.96
65972;SHT31;52726;48.852;9.152;2023-04-24T12:52:24;12.08;61.24
65972;SHT31;52726;48.852;9.152;2023-04-24T12:54:50;11.85;62.33
65972;SHT31;52726;48.852;9.152;2023-04-24T12:57:16;11.62;64.93
65972;SHT31;52726;48.852;9.152;2023-04-24T12:59:42;10.91;71.34
65972;SHT31;52726;48.852;9.152;2023-04-24T13:02:07;11.05;72.02
65972;SHT31;52726;48.852;9.152;2023-04-24T13:04:36;11.63;72.40
65972;SHT31;52726;48.852;9.152;2023-04-24T13:07:01;11.94;69.39
65972;SHT31;52726;48.852;9.152;2023-04-24T13:09:27;12.25;67.51
65972;SHT31;52726;48.852;9.152;2023-04-24T13:11:52;12.39;65.66
65972;SHT31;52726;48.852;9.152;2023-04-24T13:14:17;12.25;63.72
65972;SHT31;52726;48.852;9.152;2023-04-24T13:16:43;12.02;64.58
65972;SHT31;52726;48.852;9.152;2023-04-24T13:19:08;11.93;65.33
65972;SHT31;52726;48.852;9.152;2023-04-24T13:21:33;11.93;64.84
65972;SHT31;52726;48.852;9.152;2023-04-24T13:23:59;11.80;64.74
65972;SHT31;52726;48.852;9.152;2023-04-24T13:26:24;11.87;64.97
65972;SHT31;52726;48.852;9.152;2023-04-24T13:28:50;11.95;64.17
65972;SHT31;52726;48.852;9.152;2023-04-24T13:31:15;12.17;64.55
65972;SHT31;52726;48.852;9.152;2023-04-24T13:33:41;12.15;63.98
65972;SHT31;52726;48.852;9.152;2023-04-24T13:36:06;12.12;64.83
65972;SHT31;52726;48.852;9.152;2023-04-24T13:38:32;12.12;64.46
65972;SHT31;52726;48.852;9.152;2023-04-24T13:40:57;11.94;64.46
65972;SHT31;52726;48.852;9.152;2023-04-24T13:43:22;11.69;65.18
65972;SHT31;52726;48.852;9.152;2023-04-24T13:45:48;11.74;66.13
65972;SHT31;52726;48.852;9.152;2023-04-24T13:48:14;12.18;63.68
65972;SHT31;52726;48.852;9.152;2023-04-24T13:50:43;12.69;64.27
65972;SHT31;52726;48.852;9.152;2023-04-24T13:53:09;12.90;61.72
65972;SHT31;52726;48.852;9.152;2023-04-24T13:55:35;12.77;61.96
65972;SHT31;52726;48.852;9.152;2023-04-24T13:58:01;12.36;61.79
65972;SHT31;52726;48.852;9.152;2023-04-24T14:00:26;12.25;64.26
65972;SHT31;52726;48.852;9.152;2023-04-24T14:02:52;12.25;63.93
65972;SHT31;52726;48.852;9.152;2023-04-24T14:05:17;12.53;65.16
65972;SHT31;52726;48.852;9.152;2023-04-24T14:07:43;12.76;64.62
65972;SHT31;52726;48.852;9.152;2023-04-24T14:10:08;13.00;62.93
65972;SHT31;52726;48.852;9.152;2023-04-24T14:12:34;12.69;63.44
65972;SHT31;52726;48.852;9.152;2023-04-24T14:15:00;12.43;63.88
65972;SHT31;52726;48.852;9.152;2023-04-24T14:17:26;12.57;64.36
65972;SHT31;52726;48.852;9.152;2023-04-24T14:19:51;12.57;63.22
65972;SHT31;52726;48.852;9.152;2023-04-24T14:22:17;12.64;63.47
65972;SHT31;52726;48.852;9.152;2023-04-24T14:24:43;13.03;62.60
65972;SHT31;52726;48.852;9.152;2023-04-24T14:27:08;12.97;61.19
65972;SHT31;52726;48.852;9.152;2023-04-24T14:29:33;13.19;62.13
65972;SHT31;52726;48.852;9.152;2023-04-24T14:31:59;13.31;60.26
65972;SHT31;52726;48.852;9.152;2023-04-24T14:34:24;13.00;61.42
65972;SHT31;52726;48.852;9.152;2023-04-24T14:36:49;13.01;63.33
65972;SHT31;52726;48.852;9.152;2023-04-24T14:39:15;12.93;63.37
65972;SHT31;52726;48.852;9.152;2023-04-24T14:41:40;12.83;62.73
65972;SHT31;52726;48.852;9.152;2023-04-24T14:44:06;12.94;62.92
65972;SHT31;52726;48.852;9.152;2023-04-24T14:46:31;12.81;62.43
65972;SHT31;52726;48.852;9.152;2023-04-24T14:48:56;12.72;61.93
65972;SHT31;52726;48.852;9.152;2023-04-24T14:51:22;12.62;60.55
65972;SHT31;52726;48.852;9.152;2023-04-24T14:53:48;12.31;59.80
65972;SHT31;52726;48.852;9.152;2023-04-24T14:56:14;12.63;62.22
65972;SHT31;52726;48.852;9.152;2023-04-24T14:58:39;12.70;60.13
65972;SHT31;52726;48.852;9.152;2023-04-24T15:01:05;13.29;61.43
65972;SHT31;52726;48.852;9.152;2023-04-24T15:03:30;13.52;59.33
65972;SHT31;52726;48.852;9.152;2023-04-24T15:05:56;13.28;58.81
65972;SHT31;52726;48.852;9.152;2023-04-24T15:08:21;13.37;58.88
65972;SHT31;52726;48.852;9.152;2023-04-24T15:10:47;12.98;59.41
65972;SHT31;52726;48.852;9.152;2023-04-24T15:13:12;12.80;61.18
65972;SHT31;52726;48.852;9.152;2023-04-24T15:15:38;12.59;60.74
65972;SHT31;52726;48.852;9.152;2023-04-24T15:18:04;12.36;60.30
65972;SHT31;52726;48.852;9.152;2023-04-24T15:20:30;12.14;60.87
65972;SHT31;52726;48.852;9.152;2023-04-24T15:22:55;12.12;62.02
65972;SHT31;52726;48.852;9.152;2023-04-24T15:25:21;12.02;61.20
65972;SHT31;52726;48.852;9.152;2023-04-24T15:27:46;11.85;62.53
65972;SHT31;52726;48.852;9.152;2023-04-24T15:30:12;11.69;63.00
65972;SHT31;52726;48.852;9.152;2023-04-24T15:32:38;11.73;63.08
65972;SHT31;52726;48.852;9.152;2023-04-24T15:35:04;11.78;62.70
65972;SHT31;52726;48.852;9.152;2023-04-24T15:37:30;11.94;64.12